»·PEaware :: PH-TIM KSAN-KLAX

PH-TIM :: KSAN-KLAX

FLIGHT INFORMATION

Flight Status: Arrived
Operator: Privately registered:
Netherlands
More flights under this callsign
Pilot: Tim P. (6337)
Aircraft: CESSNA 172 SKYHAWK
(C172)
More flights by this aircraft type
Origin: KSAN San Diego Intl-Lindbergh
United States
Destination: KLAX Los Angeles Intl
United States
More flights between these airports :: More routes between these airports
Route: +
File this flight plan on PilotEdge
Remarks:
Altitude:
(Current/Filed)
6,500ft
Speed:
(Current/Filed)
0kts
Departed: 03-Oct-17 11:06 AM
Arrived: 03-Oct-17 12:07 PM
Distance/Time
Traveled:
94nm/1:01
Distance/Time
To Go:
Arrived

Flight Plot

Page will automatically refresh every two minutes.


Map Options




Map Legend


Flown Route
Filed Route
Departure Airport
Arrival Airport
Navaid (VOR, NDB)
Fix

Horizontal Profiles

Position Reports

Time Latitude Longitude Heading Altitude Ground
Speed
03-Oct-17 10:58 32.732463 -117.176891 193 21ft 0kts
03-Oct-17 10:59 32.732463 -117.176891 193 21ft 0kts
03-Oct-17 11:00 32.732463 -117.176891 193 21ft 0kts
03-Oct-17 11:01 32.732463 -117.176891 193 21ft 0kts
03-Oct-17 11:02 32.732341 -117.176924 192 21ft 5kts
03-Oct-17 11:03 32.730824 -117.175302 255 21ft 5kts
03-Oct-17 11:04 32.730822 -117.175320 264 21ft 0kts
03-Oct-17 11:05 32.730822 -117.175320 264 21ft 0kts
03-Oct-17 11:06 32.730822 -117.175320 264 21ft 0kts
03-Oct-17 11:07 32.730822 -117.175320 264 21ft 0kts
03-Oct-17 11:08 32.730822 -117.175320 264 21ft 0kts
03-Oct-17 11:09 32.730356 -117.176549 285 18ft 31kts
03-Oct-17 11:10 32.735496 -117.200993 282 587ft 86kts
03-Oct-17 11:11 32.753313 -117.220300 324 1357ft 89kts
03-Oct-17 11:12 32.776142 -117.240336 322 1674ft 109kts
03-Oct-17 11:13 32.799530 -117.263891 318 2066ft 124kts
03-Oct-17 11:14 32.830527 -117.277676 9 2469ft 107kts
03-Oct-17 11:15 32.840348 -117.256112 155 3055ft 90kts
03-Oct-17 11:16 32.845147 -117.267408 50 3422ft 110kts
03-Oct-17 11:17 32.830610 -117.252092 158 4097ft 82kts
03-Oct-17 11:18 32.845733 -117.242878 350 4582ft 106kts
03-Oct-17 11:19 32.874905 -117.254446 342 4606ft 118kts
03-Oct-17 11:20 32.905675 -117.265759 340 4642ft 120kts
03-Oct-17 11:21 32.937346 -117.280885 339 4532ft 120kts
03-Oct-17 11:22 32.968087 -117.294817 340 4532ft 117kts
03-Oct-17 11:23 32.998527 -117.308503 340 4538ft 117kts
03-Oct-17 11:24 33.028909 -117.322174 340 4546ft 117kts
03-Oct-17 11:25 33.058858 -117.335754 340 4835ft 116kts
03-Oct-17 11:26 33.088955 -117.349335 340 5144ft 116kts
03-Oct-17 11:27 33.112915 -117.360143 340 5382ft 117kts
03-Oct-17 11:28 33.143460 -117.373929 340 5679ft 117kts
03-Oct-17 11:29 33.173906 -117.387680 341 5975ft 117kts
03-Oct-17 11:30 33.200973 -117.399905 339 6295ft 98kts
03-Oct-17 11:31 33.225899 -117.411244 338 6539ft 99kts
03-Oct-17 11:32 33.249800 -117.428539 317 6553ft 105kts
03-Oct-17 11:33 33.270763 -117.453022 317 6555ft 106kts
03-Oct-17 11:34 33.291783 -117.477520 317 6556ft 106kts
03-Oct-17 11:35 33.312835 -117.502045 318 6557ft 106kts
03-Oct-17 11:36 33.332003 -117.524410 317 6557ft 107kts
03-Oct-17 11:37 33.356067 -117.552574 313 6549ft 127kts
03-Oct-17 11:38 33.381423 -117.582150 313 6553ft 127kts
03-Oct-17 11:39 33.405153 -117.609882 312 6554ft 127kts
03-Oct-17 11:40 33.430291 -117.639297 312 6554ft 127kts
03-Oct-17 11:41 33.453121 -117.666034 311 6553ft 127kts
03-Oct-17 11:42 33.477345 -117.694420 311 6552ft 126kts
03-Oct-17 11:43 33.502238 -117.723621 310 6552ft 126kts
03-Oct-17 11:44 33.526904 -117.752581 310 6552ft 125kts
03-Oct-17 11:45 33.551564 -117.781557 310 6553ft 125kts
03-Oct-17 11:46 33.576109 -117.810423 310 6555ft 125kts
03-Oct-17 11:47 33.600886 -117.839586 310 6557ft 125kts
03-Oct-17 11:48 33.625540 -117.868629 310 6560ft 125kts
03-Oct-17 11:49 33.650249 -117.897760 310 6564ft 125kts
03-Oct-17 11:50 33.674981 -117.926845 310 6568ft 125kts
03-Oct-17 11:51 33.699681 -117.956007 309 6573ft 125kts
03-Oct-17 11:52 33.724327 -117.985140 309 6578ft 125kts
03-Oct-17 11:53 33.749195 -118.014480 310 6317ft 128kts
03-Oct-17 11:54 33.775247 -118.043910 333 5811ft 134kts
03-Oct-17 11:55 33.811179 -118.043653 2 5333ft 130kts
03-Oct-17 11:56 33.847065 -118.042349 2 4845ft 129kts
03-Oct-17 11:57 33.882448 -118.040851 2 4364ft 131kts
03-Oct-17 11:58 33.915484 -118.038997 2 4514ft 121kts
03-Oct-17 11:59 33.940420 -118.056894 278 4520ft 114kts
03-Oct-17 12:00 33.946780 -118.091553 276 4534ft 117kts
03-Oct-17 12:01 33.950416 -118.126342 277 4571ft 112kts
03-Oct-17 12:02 33.954239 -118.162680 275 4634ft 105kts
03-Oct-17 12:03 33.955310 -118.198152 268 4158ft 103kts
03-Oct-17 12:04 33.952486 -118.232349 264 3641ft 103kts
03-Oct-17 12:05 33.949422 -118.266003 263 2962ft 102kts
03-Oct-17 12:06 33.946934 -118.292920 266 2446ft 84kts
03-Oct-17 12:07 33.943831 -118.319220 266 1850ft 75kts
03-Oct-17 12:08 33.941284 -118.344495 258 1437ft 83kts
03-Oct-17 12:09 33.938979 -118.366772 263 565ft 76kts
03-Oct-17 12:10 33.936677 -118.389414 262 99ft 44kts
03-Oct-17 12:11 33.935319 -118.393694 179 103ft 0kts
03-Oct-17 12:12 33.934813 -118.395551 262 106ft 13kts
03-Oct-17 12:13 33.934306 -118.400596 266 115ft 12kts
03-Oct-17 12:14 33.933116 -118.401341 173 115ft 0kts

Navigation Log

Ident Type
1. KSAN Airport
2. KLAX Airport